createdAt,value
2016-03-25T00:00:53.184Z,52.86
2016-03-25T00:01:53.250Z,52.86
2016-03-25T00:02:53.269Z,52.86
2016-03-25T00:03:53.333Z,52.76
2016-03-25T00:04:53.398Z,52.76
2016-03-25T00:05:53.447Z,52.76
2016-03-25T00:06:53.490Z,52.67
2016-03-25T00:07:53.554Z,52.76
2016-03-25T00:08:53.603Z,53.24
2016-03-25T00:09:53.653Z,51.51
2016-03-25T00:10:53.687Z,52.38
2016-03-25T00:11:53.737Z,52.48
2016-03-25T00:12:53.801Z,52.28
2016-03-25T00:13:53.851Z,52.38
2016-03-25T00:14:53.901Z,51.04
2016-03-25T00:15:53.966Z,51.51
2016-03-25T00:16:54.000Z,52.28
2016-03-25T00:17:54.050Z,52.19
2016-03-25T00:18:54.114Z,52.19
2016-03-25T00:19:54.164Z,52.28
2016-03-25T00:20:54.198Z,52.38
2016-03-25T00:21:54.263Z,52.19
2016-03-25T00:22:54.313Z,52.28
2016-03-25T00:23:54.363Z,51.71
2016-03-25T00:24:54.412Z,51.81
2016-03-25T00:25:54.461Z,51.71
2016-03-25T00:26:54.527Z,51.71
2016-03-25T00:27:54.576Z,51.51
2016-03-25T00:28:54.611Z,51.9
2016-03-25T00:29:54.676Z,52.09
2016-03-25T00:30:54.724Z,51.9
2016-03-25T00:31:54.774Z,52.28
2016-03-25T00:32:54.824Z,51.71
2016-03-25T00:33:54.874Z,51.61
2016-03-25T00:34:54.924Z,52.48
2016-03-25T00:35:54.973Z,51.61
2016-03-25T00:36:55.007Z,51.23
2016-03-25T00:37:55.087Z,51.23
2016-03-25T00:38:55.137Z,51.42
2016-03-25T00:39:55.171Z,50.94
2016-03-25T00:40:55.236Z,51.51
2016-03-25T00:41:55.286Z,51.81
2016-03-25T00:42:55.320Z,51.14
2016-03-25T00:43:55.384Z,51.32
2016-03-25T00:44:55.451Z,51.14
2016-03-25T00:45:55.469Z,51.42
2016-03-25T00:46:55.533Z,51.23
2016-03-25T00:47:55.600Z,51.51
2016-03-25T00:48:55.633Z,51.32
2016-03-25T00:49:55.713Z,51.42
2016-03-25T00:50:55.733Z,51.04
2016-03-25T00:51:55.797Z,51.23
2016-03-25T00:52:55.863Z,50.94
2016-03-25T00:53:55.897Z,50.75
2016-03-25T00:54:55.946Z,51.04
2016-03-25T00:55:56.027Z,51.04
2016-03-25T00:56:56.044Z,50.94
2016-03-25T00:57:56.094Z,51.42
2016-03-25T00:58:56.159Z,50.75
2016-03-25T00:59:56.210Z,50.84
2016-03-25T01:00:56.259Z,50.56
2016-03-25T01:01:56.293Z,50.17
2016-03-25T01:02:56.343Z,50.75
2016-03-25T01:03:56.424Z,51.14
2016-03-25T01:04:56.473Z,50.84
2016-03-25T01:05:56.507Z,50.75
2016-03-25T01:06:56.588Z,50.75
2016-03-25T01:07:56.621Z,50.75
2016-03-25T01:08:56.671Z,50.84
2016-03-25T01:09:56.721Z,50.65
2016-03-25T01:10:56.770Z,50.75
2016-03-25T01:11:56.804Z,50.27
2016-03-25T01:12:56.869Z,50.56
2016-03-25T01:13:56.934Z,50.75
2016-03-25T01:14:56.953Z,50.37
2016-03-25T01:15:57.003Z,50.56
2016-03-25T01:16:57.084Z,51.04
2016-03-25T01:17:57.117Z,50.56
2016-03-25T01:18:57.183Z,50.84
2016-03-25T01:19:57.232Z,50.65
2016-03-25T01:20:57.297Z,51.04
2016-03-25T01:21:57.316Z,50.56
2016-03-25T01:22:57.380Z,50.46
2016-03-25T01:23:57.430Z,51.14
2016-03-25T01:24:57.480Z,50.17
2016-03-25T01:25:57.545Z,50.75
2016-03-25T01:26:57.579Z,50.84
2016-03-25T01:27:57.644Z,50.84
2016-03-25T01:28:57.677Z,50.27
2016-03-25T01:29:57.728Z,50.56
2016-03-25T01:30:57.793Z,50.75
2016-03-25T01:31:57.858Z,50.27
2016-03-25T01:32:57.876Z,50.37
2016-03-25T01:33:57.941Z,50.84
2016-03-25T01:34:58.007Z,51.42
2016-03-25T01:35:58.041Z,52.38
2016-03-25T01:36:58.090Z,51.23
2016-03-25T01:37:58.265Z,51.51
2016-03-25T01:38:58.032Z,51.23
2016-03-25T01:39:58.254Z,52.48
2016-03-25T01:40:58.288Z,51.32
2016-03-25T01:41:58.354Z,51.14
2016-03-25T01:42:58.434Z,51.04
2016-03-25T01:43:58.453Z,52.09
2016-03-25T01:44:58.549Z,51.71
2016-03-25T01:45:58.583Z,52.38
2016-03-25T01:46:58.601Z,51.23
2016-03-25T01:47:58.667Z,51.23
2016-03-25T01:48:58.716Z,51.14
2016-03-25T01:49:58.750Z,51.14
2016-03-25T01:50:58.800Z,50.94
2016-03-25T01:51:58.864Z,50.27
2016-03-25T01:52:59.149Z,50.17
2016-03-25T01:53:58.980Z,50.37
2016-03-25T01:54:59.013Z,50.17
2016-03-25T01:55:59.063Z,50.17
2016-03-25T01:56:59.128Z,50.46
2016-03-25T01:57:59.163Z,49.88
2016-03-25T01:58:59.211Z,50.08
2016-03-25T01:59:59.277Z,50.17
2016-03-25T02:00:59.327Z,49.88
2016-03-25T02:01:59.377Z,49.69
2016-03-25T02:02:59.441Z,49.88
2016-03-25T02:03:59.490Z,49.98
2016-03-25T02:04:59.524Z,50.17
2016-03-25T02:05:59.574Z,49.98
2016-03-25T02:06:59.624Z,50.27
2016-03-25T02:07:59.860Z,50.08
2016-03-25T02:08:59.785Z,49.98
2016-03-25T02:09:59.773Z,49.98
2016-03-25T02:10:59.837Z,50.37
2016-03-25T02:11:59.887Z,49.98
2016-03-25T02:12:59.921Z,49.98
2016-03-25T02:14:00.001Z,49.88
2016-03-25T02:15:00.052Z,49.88
2016-03-25T02:16:00.086Z,50.17
2016-03-25T02:17:00.134Z,49.98
2016-03-25T02:18:00.185Z,50.08
2016-03-25T02:19:00.250Z,49.98
2016-03-25T02:20:00.314Z,49.5
2016-03-25T02:21:00.334Z,50.17
2016-03-25T02:22:00.398Z,49.79
2016-03-25T02:23:00.355Z,49.88
2016-03-25T02:24:00.497Z,49.98
2016-03-25T02:25:00.547Z,49.88
2016-03-25T02:26:00.613Z,49.79
2016-03-25T02:27:00.646Z,50.08
2016-03-25T02:28:00.696Z,49.88
2016-03-25T02:29:00.760Z,50.17
2016-03-25T02:30:00.794Z,49.79
2016-03-25T02:31:00.877Z,50.17
2016-03-25T02:32:00.910Z,49.88
2016-03-25T02:33:00.959Z,50.37
2016-03-25T02:34:01.010Z,49.88
2016-03-25T02:35:01.058Z,49.98
2016-03-25T02:36:01.107Z,49.79
2016-03-25T02:37:01.173Z,49.79
2016-03-25T02:38:01.238Z,49.98
2016-03-25T02:39:01.257Z,49.88
2016-03-25T02:40:01.338Z,50.08
2016-03-25T02:41:01.371Z,49.98
2016-03-25T02:42:01.406Z,50.08
2016-03-25T02:43:01.471Z,50.08
2016-03-25T02:44:01.520Z,49.88
2016-03-25T02:45:01.584Z,49.79
2016-03-25T02:46:01.603Z,49.88
2016-03-25T02:47:01.661Z,50.08
2016-03-25T02:48:01.711Z,49.98
2016-03-25T02:49:01.730Z,50.08
2016-03-25T02:50:01.764Z,49.79
2016-03-25T02:51:01.830Z,49.88
2016-03-25T02:52:01.855Z,49.88
2016-03-25T02:53:01.773Z,49.5
2016-03-25T02:54:01.959Z,49.41
2016-03-25T02:55:02.003Z,49.5
2016-03-25T02:56:02.032Z,49.98
2016-03-25T02:57:02.077Z,49.5
2016-03-25T02:58:02.140Z,49.41
2016-03-25T02:59:02.173Z,49.6
2016-03-25T03:00:02.221Z,49.6
2016-03-25T03:01:02.283Z,49.6
2016-03-25T03:02:02.332Z,49.6
2016-03-25T03:03:02.365Z,49.21
2016-03-25T03:04:02.430Z,49.5
2016-03-25T03:05:02.494Z,49.31
2016-03-25T03:06:02.526Z,49.41
2016-03-25T03:07:02.591Z,49.31
2016-03-25T03:08:02.516Z,49.5
2016-03-25T03:09:02.690Z,49.31
2016-03-25T03:10:02.723Z,49.31
2016-03-25T03:11:02.773Z,49.88
2016-03-25T03:12:02.853Z,50.08
2016-03-25T03:13:02.918Z,49.41
2016-03-25T03:14:02.937Z,49.31
2016-03-25T03:15:03.002Z,50.08
2016-03-25T03:16:03.051Z,50.08
2016-03-25T03:17:03.070Z,49.41
2016-03-25T03:18:03.166Z,49.6
2016-03-25T03:19:03.200Z,49.31
2016-03-25T03:20:03.234Z,49.31
2016-03-25T03:21:03.284Z,49.6
2016-03-25T03:22:03.349Z,49.6
2016-03-25T03:23:03.414Z,49.41
2016-03-25T03:24:03.464Z,49.41
2016-03-25T03:25:03.482Z,49.31
2016-03-25T03:26:03.547Z,49.41
2016-03-25T03:27:03.628Z,49.5
2016-03-25T03:28:03.646Z,49.98
2016-03-25T03:29:03.697Z,49.41
2016-03-25T03:30:03.762Z,49.31
2016-03-25T03:31:03.796Z,49.41
2016-03-25T03:32:03.845Z,49.31
2016-03-25T03:33:03.911Z,49.31
2016-03-25T03:34:03.944Z,49.41
2016-03-25T03:35:04.025Z,49.41
2016-03-25T03:36:04.060Z,49.6
2016-03-25T03:37:04.108Z,49.31
2016-03-25T03:38:04.206Z,49.41
2016-03-25T03:39:04.208Z,49.31
2016-03-25T03:40:04.257Z,49.12
2016-03-25T03:41:04.339Z,49.41
2016-03-25T03:42:04.357Z,49.31
2016-03-25T03:43:04.406Z,49.41
2016-03-25T03:44:04.488Z,49.41
2016-03-25T03:45:04.521Z,49.31
2016-03-25T03:46:04.555Z,49.21
2016-03-25T03:47:04.636Z,49.41
2016-03-25T03:48:04.670Z,49.31
2016-03-25T03:49:04.735Z,49.5
2016-03-25T03:50:04.768Z,49.41
2016-03-25T03:51:04.818Z,49.21
2016-03-25T03:52:04.884Z,49.31
2016-03-25T03:53:04.933Z,49.21
2016-03-25T03:54:04.968Z,50.17
2016-03-25T03:55:05.064Z,50.27
2016-03-25T03:56:05.097Z,50.17
2016-03-25T03:57:05.163Z,49.88
2016-03-25T03:58:05.212Z,50.17
2016-03-25T03:59:05.247Z,49.98
2016-03-25T04:00:05.295Z,49.98
2016-03-25T04:01:05.345Z,49.88
2016-03-25T04:02:05.395Z,49.98
2016-03-25T04:03:05.444Z,50.17
2016-03-25T04:04:05.494Z,50.27
2016-03-25T04:05:05.544Z,49.98
2016-03-25T04:06:05.609Z,49.88
2016-03-25T04:07:05.658Z,49.98
2016-03-25T04:08:05.691Z,50.08
2016-03-25T04:09:05.742Z,49.31
2016-03-25T04:10:05.807Z,49.41
2016-03-25T04:11:05.857Z,49.5
2016-03-25T04:12:05.907Z,50.08
2016-03-25T04:13:05.955Z,49.98
2016-03-25T04:14:06.005Z,49.69
2016-03-25T04:15:06.055Z,49.6
2016-03-25T04:16:06.120Z,49.41
2016-03-25T04:17:06.154Z,49.41
2016-03-25T04:18:06.219Z,49.21
2016-03-25T04:19:06.254Z,49.98
2016-03-25T04:20:06.318Z,49.79
2016-03-25T04:21:06.368Z,49.41
2016-03-25T04:22:06.417Z,49.31
2016-03-25T04:23:06.468Z,49.31
2016-03-25T04:24:06.517Z,49.31
2016-03-25T04:25:06.566Z,49.41
2016-03-25T04:26:06.631Z,49.69
2016-03-25T04:27:06.665Z,49.5
2016-03-25T04:28:06.731Z,49.98
2016-03-25T04:29:06.780Z,49.79
2016-03-25T04:30:06.830Z,49.88
2016-03-25T04:31:06.879Z,49.98
2016-03-25T04:32:06.928Z,49.31
2016-03-25T04:33:06.978Z,49.31
2016-03-25T04:34:07.028Z,49.41
2016-03-25T04:35:07.093Z,49.21
2016-03-25T04:36:07.143Z,49.31
2016-03-25T04:37:07.208Z,49.6
2016-03-25T04:38:07.241Z,50.27
2016-03-25T04:39:07.292Z,49.98
2016-03-25T04:40:07.325Z,50.08
2016-03-25T04:41:07.234Z,49.88
2016-03-25T04:42:07.440Z,50.27
2016-03-25T04:43:07.490Z,50.46
2016-03-25T04:44:07.539Z,50.46
2016-03-25T04:45:07.589Z,50.08
2016-03-25T04:46:07.654Z,50.17
2016-03-25T04:47:07.687Z,50.37
2016-03-25T04:48:07.754Z,50.27
2016-03-25T04:49:07.802Z,50.17
2016-03-25T04:50:07.851Z,50.17
2016-03-25T04:51:07.902Z,50.17
2016-03-25T04:52:07.951Z,50.37
2016-03-25T04:53:08.032Z,50.37
2016-03-25T04:54:08.051Z,50.27
2016-03-25T04:55:07.365Z,50.27
2016-03-25T04:56:08.165Z,50.46
2016-03-25T04:57:08.355Z,50.46
2016-03-25T04:58:08.265Z,50.27
2016-03-25T04:59:08.314Z,50.37
2016-03-25T05:00:08.364Z,50.17
2016-03-25T05:01:08.429Z,50.17
2016-03-25T05:02:08.462Z,50.27
2016-03-25T05:03:08.528Z,50.17
2016-03-25T05:04:08.561Z,50.17
2016-03-25T05:05:08.627Z,50.37
2016-03-25T05:06:08.660Z,50.17
2016-03-25T05:07:08.725Z,50.08
2016-03-25T05:08:08.824Z,50.27
2016-03-25T05:09:08.827Z,50.27
2016-03-25T05:10:08.876Z,50.46
2016-03-25T05:11:08.926Z,50.46
2016-03-25T05:12:08.975Z,50.56
2016-03-25T05:13:09.025Z,50.65
2016-03-25T05:14:09.090Z,50.65
2016-03-25T05:15:09.123Z,50.56
2016-03-25T05:16:09.189Z,50.56
2016-03-25T05:17:09.222Z,50.56
2016-03-25T05:18:09.288Z,50.75
2016-03-25T05:19:09.337Z,50.75
2016-03-25T05:20:09.386Z,50.65
2016-03-25T05:21:09.436Z,50.56
2016-03-25T05:22:09.486Z,50.75
2016-03-25T05:23:09.410Z,50.65
2016-03-25T05:24:09.600Z,50.65
2016-03-25T05:25:09.635Z,50.17
2016-03-25T05:26:09.685Z,50.27
2016-03-25T05:27:09.733Z,50.37
2016-03-25T05:28:09.799Z,50.37
2016-03-25T05:29:09.849Z,50.27
2016-03-25T05:30:09.899Z,50.65
2016-03-25T05:31:09.948Z,50.75
2016-03-25T05:32:09.997Z,50.75
2016-03-25T05:33:10.063Z,50.37
2016-03-25T05:34:10.096Z,50.65
2016-03-25T05:35:10.146Z,50.56
2016-03-25T05:36:10.211Z,50.56
2016-03-25T05:37:10.261Z,50.56
2016-03-25T05:38:10.295Z,50.65
2016-03-25T05:39:10.360Z,50.56
2016-03-25T05:40:10.410Z,50.56
2016-03-25T05:41:10.459Z,50.37
2016-03-25T05:42:10.509Z,50.65
2016-03-25T05:43:10.559Z,50.27
2016-03-25T05:44:10.620Z,50.08
2016-03-25T05:45:10.655Z,50.08
2016-03-25T05:46:10.720Z,50.56
2016-03-25T05:47:10.769Z,50.56
2016-03-25T05:48:10.819Z,50.56
2016-03-25T05:49:10.868Z,50.75
2016-03-25T05:50:10.919Z,50.75
2016-03-25T05:51:10.967Z,50.56
2016-03-25T05:52:11.016Z,50.56
2016-03-25T05:53:11.067Z,50.65
2016-03-25T05:54:11.132Z,50.65
2016-03-25T05:55:11.181Z,50.37
2016-03-25T05:56:11.231Z,50.56
2016-03-25T05:57:11.280Z,50.65
2016-03-25T05:58:11.319Z,50.56
2016-03-25T05:59:11.385Z,50.46
2016-03-25T06:00:11.434Z,50.46
2016-03-25T06:01:11.483Z,50.08
2016-03-25T06:02:11.534Z,50.08
2016-03-25T06:03:11.598Z,50.17
2016-03-25T06:04:11.632Z,50.37
2016-03-25T06:05:11.682Z,50.56
2016-03-25T06:06:11.731Z,50.46
2016-03-25T06:07:11.781Z,50.17
2016-03-25T06:08:11.846Z,50.17
2016-03-25T06:09:11.895Z,50.17
2016-03-25T06:10:11.945Z,50.17
2016-03-25T06:11:11.979Z,50.37
2016-03-25T06:12:12.044Z,50.37
2016-03-25T06:13:12.095Z,50.17
2016-03-25T06:14:12.144Z,50.37
2016-03-25T06:15:12.193Z,50.08
2016-03-25T06:16:12.243Z,50.37
2016-03-25T06:17:12.292Z,50.17
2016-03-25T06:18:12.341Z,50.37
2016-03-25T06:19:12.422Z,50.46
2016-03-25T06:20:12.457Z,50.37
2016-03-25T06:21:12.491Z,50.37
2016-03-25T06:22:12.555Z,50.08
2016-03-25T06:23:12.605Z,50.37
2016-03-25T06:24:12.655Z,50.17
2016-03-25T06:25:12.704Z,50.46
2016-03-25T06:26:12.754Z,50.17
2016-03-25T06:27:12.804Z,50.17
2016-03-25T06:28:12.853Z,50.37
2016-03-25T06:29:12.918Z,50.08
2016-03-25T06:30:12.968Z,50.37
2016-03-25T06:31:13.001Z,50.17
2016-03-25T06:32:13.067Z,50.17
2016-03-25T06:33:13.117Z,50.27
2016-03-25T06:34:13.166Z,50.08
2016-03-25T06:35:13.216Z,49.79
2016-03-25T06:36:13.265Z,50.08
2016-03-25T06:37:13.331Z,50.08
2016-03-25T06:38:13.365Z,50.08
2016-03-25T06:39:13.414Z,49.88
2016-03-25T06:40:13.494Z,49.98
2016-03-25T06:41:13.560Z,49.6
2016-03-25T06:42:13.578Z,49.98
2016-03-25T06:43:13.627Z,49.88
2016-03-25T06:44:13.678Z,49.69
2016-03-25T06:45:13.727Z,50.27
2016-03-25T06:46:13.777Z,50.27
2016-03-25T06:47:13.826Z,50.08
2016-03-25T06:48:13.875Z,50.17
2016-03-25T06:49:13.941Z,50.37
2016-03-25T06:50:13.975Z,50.37
2016-03-25T06:51:14.040Z,50.56
2016-03-25T06:52:14.089Z,50.94
2016-03-25T06:53:14.139Z,50.37
2016-03-25T06:54:14.204Z,50.75
2016-03-25T06:55:14.239Z,50.75
2016-03-25T06:56:14.288Z,51.51
2016-03-25T06:57:14.337Z,51.81
2016-03-25T06:58:14.402Z,51.61
2016-03-25T06:59:14.437Z,51.42
2016-03-25T07:00:14.517Z,51.42
2016-03-25T07:01:14.551Z,50.84
2016-03-25T07:02:14.601Z,50.17
2016-03-25T07:03:14.651Z,50.08
2016-03-25T07:04:14.700Z,50.08
2016-03-25T07:05:14.749Z,49.6
2016-03-25T07:06:14.798Z,49.88
2016-03-25T07:07:14.864Z,49.79
2016-03-25T07:08:14.898Z,50.56
2016-03-25T07:09:14.964Z,50.46
2016-03-25T07:10:14.997Z,50.56
2016-03-25T07:11:15.048Z,50.65
2016-03-25T07:12:15.112Z,50.65
2016-03-25T07:13:15.161Z,50.46
2016-03-25T07:14:15.211Z,49.31
2016-03-25T07:15:15.261Z,48.83
2016-03-25T07:16:15.310Z,48.35
2016-03-25T07:17:15.360Z,48.23
2016-03-25T07:18:15.409Z,48.23
2016-03-25T07:19:15.474Z,48.23
2016-03-25T07:20:15.525Z,48.61
2016-03-25T07:21:15.574Z,48.49
2016-03-25T07:22:15.623Z,48.02
2016-03-25T07:23:15.673Z,48.78
2016-03-25T07:24:15.722Z,48.85
2016-03-25T07:25:15.771Z,48.66
2016-03-25T07:26:15.821Z,48.95
2016-03-25T07:27:15.871Z,49.52
2016-03-25T07:28:15.921Z,49.52
2016-03-25T07:29:15.986Z,49.33
2016-03-25T07:30:16.021Z,49.43
2016-03-25T07:31:16.085Z,49.91
2016-03-25T07:32:16.135Z,49.91
2016-03-25T07:33:16.168Z,49.81
2016-03-25T07:34:16.234Z,49.91
2016-03-25T07:35:16.283Z,49.24
2016-03-25T07:36:16.333Z,49.05
2016-03-25T07:37:16.382Z,48.85
2016-03-25T07:38:16.432Z,49.24
2016-03-25T07:39:16.482Z,49.33
2016-03-25T07:40:16.531Z,49.43
2016-03-25T07:41:16.580Z,49.33
2016-03-25T07:42:16.631Z,49.33
2016-03-25T07:43:16.680Z,49.24
2016-03-25T07:44:16.729Z,48.66
2016-03-25T07:45:16.779Z,48.38
2016-03-25T07:46:16.829Z,48.57
2016-03-25T07:47:16.878Z,48.73
2016-03-25T07:48:16.928Z,48.95
2016-03-25T07:49:16.978Z,48.85
2016-03-25T07:50:17.027Z,49.02
2016-03-25T07:51:17.092Z,49.43
2016-03-25T07:52:17.125Z,48.73
2016-03-25T07:53:17.175Z,48.73
2016-03-25T07:54:17.241Z,48.44
2016-03-25T07:55:17.291Z,48.73
2016-03-25T07:56:17.324Z,49.31
2016-03-25T07:57:17.388Z,49.21
2016-03-25T07:58:17.423Z,49.5
2016-03-25T07:59:17.474Z,49.69
2016-03-25T08:00:17.538Z,49.69
2016-03-25T08:01:17.587Z,50.17
2016-03-25T08:02:17.622Z,50
2016-03-25T08:03:17.671Z,50
2016-03-25T08:04:17.736Z,50
2016-03-25T08:05:17.770Z,49.81
2016-03-25T08:06:17.835Z,49.71
2016-03-25T08:07:17.901Z,49.62
2016-03-25T08:08:17.934Z,50.48
2016-03-25T08:09:17.984Z,50.48
2016-03-25T08:10:18.034Z,50.7
2016-03-25T08:11:18.083Z,50.12
2016-03-25T08:12:18.133Z,49.26
2016-03-25T08:13:18.182Z,48.88
2016-03-25T08:14:18.231Z,48.49
2016-03-25T08:15:18.281Z,48.59
2016-03-25T08:16:18.331Z,48.69
2016-03-25T08:17:18.381Z,48.69
2016-03-25T08:18:18.445Z,48.59
2016-03-25T08:19:18.480Z,48.69
2016-03-25T08:20:18.530Z,49.26
2016-03-25T08:21:18.578Z,48.78
2016-03-25T08:22:18.644Z,48.4
2016-03-25T08:23:18.694Z,48.59
2016-03-25T08:24:18.743Z,48.69
2016-03-25T08:25:18.793Z,48.71
2016-03-25T08:26:18.842Z,48.8
2016-03-25T08:27:18.891Z,48.69
2016-03-25T08:28:18.941Z,48.71
2016-03-25T08:29:18.991Z,48.69
2016-03-25T08:30:19.040Z,48.71
2016-03-25T08:31:19.075Z,48.71
2016-03-25T08:32:19.124Z,48.61
2016-03-25T08:33:19.190Z,48.8
2016-03-25T08:34:19.239Z,48.8
2016-03-25T08:35:19.304Z,48.8
2016-03-25T08:36:19.338Z,48.71
2016-03-25T08:37:19.387Z,48.9
2016-03-25T08:38:19.453Z,48.61
2016-03-25T08:39:19.486Z,48.71
2016-03-25T08:40:19.536Z,48.8
2016-03-25T08:41:19.601Z,48.52
2016-03-25T08:42:19.635Z,48.52
2016-03-25T08:43:19.701Z,48.71
2016-03-25T08:44:19.750Z,48.8
2016-03-25T08:45:19.784Z,48.61
2016-03-25T08:46:19.850Z,48.71
2016-03-25T08:47:19.898Z,48.71
2016-03-25T08:48:19.948Z,48.43
2016-03-25T08:49:19.998Z,49
2016-03-25T08:50:20.064Z,49
2016-03-25T08:51:20.098Z,49.29
2016-03-25T08:52:20.147Z,49.38
2016-03-25T08:53:20.212Z,49.29
2016-03-25T08:54:20.246Z,49.38
2016-03-25T08:55:20.311Z,49.29
2016-03-25T08:56:20.361Z,49.29
2016-03-25T08:57:20.410Z,49.38
2016-03-25T08:58:20.460Z,49.67
2016-03-25T08:59:20.509Z,49.29
2016-03-25T09:00:20.558Z,49.67
2016-03-25T09:01:20.624Z,50.34
2016-03-25T09:02:20.658Z,50.15
2016-03-25T09:03:20.708Z,50.05
2016-03-25T09:04:20.757Z,49.86
2016-03-25T09:05:20.821Z,49.67
2016-03-25T09:06:20.856Z,50.53
2016-03-25T09:07:20.921Z,50.43
2016-03-25T09:08:20.970Z,50.15
2016-03-25T09:09:21.020Z,50.15
2016-03-25T09:10:21.070Z,50.53
2016-03-25T09:11:21.120Z,50.24
2016-03-25T09:12:21.169Z,50.43
2016-03-25T09:13:21.218Z,50.63
2016-03-25T09:14:21.268Z,50.43
2016-03-25T09:15:21.318Z,50.63
2016-03-25T09:16:21.383Z,50.63
2016-03-25T09:17:21.433Z,50.34
2016-03-25T09:18:21.482Z,50.63
2016-03-25T09:19:21.517Z,50.24
2016-03-25T09:20:21.581Z,50.73
2016-03-25T09:21:21.631Z,50.43
2016-03-25T09:22:21.681Z,50.53
2016-03-25T09:23:21.731Z,50.53
2016-03-25T09:24:21.780Z,50.24
2016-03-25T09:25:21.830Z,50.15
2016-03-25T09:26:21.879Z,50.15
2016-03-25T09:27:21.928Z,50.63
2016-03-25T09:28:21.978Z,50.05
2016-03-25T09:29:22.028Z,50.63
2016-03-25T09:30:22.077Z,50.15
2016-03-25T09:31:22.127Z,50.73
2016-03-25T09:32:22.192Z,50.53
2016-03-25T09:33:22.241Z,50.53
2016-03-25T09:34:22.291Z,50.15
2016-03-25T09:35:22.341Z,50.24
2016-03-25T09:36:22.390Z,50.24
2016-03-25T09:37:22.455Z,50.34
2016-03-25T09:38:22.490Z,50.73
2016-03-25T09:39:22.538Z,50.15
2016-03-25T09:40:22.588Z,50.53
2016-03-25T09:41:22.653Z,50.15
2016-03-25T09:42:22.688Z,50.53
2016-03-25T09:43:22.753Z,50.43
2016-03-25T09:44:22.802Z,50.43
2016-03-25T09:45:22.852Z,50.15
2016-03-25T09:46:22.901Z,50.24
2016-03-25T09:47:22.950Z,50.24
2016-03-25T09:48:23.000Z,50.15
2016-03-25T09:49:23.050Z,50.15
2016-03-25T09:50:23.100Z,50.05
2016-03-25T09:51:23.164Z,50.24
2016-03-25T09:52:23.199Z,50.24
2016-03-25T09:53:23.264Z,50.24
2016-03-25T09:54:23.313Z,50.15
2016-03-25T09:55:23.364Z,50.05
2016-03-25T09:56:23.413Z,50.24
2016-03-25T09:57:23.462Z,50.15
2016-03-25T09:58:23.511Z,50.24
2016-03-25T09:59:23.562Z,50.34
2016-03-25T10:00:23.611Z,50.15
2016-03-25T10:01:23.661Z,50.05
2016-03-25T10:02:23.711Z,50.43
2016-03-25T10:03:23.760Z,50.05
2016-03-25T10:04:23.810Z,50.24
2016-03-25T10:05:23.875Z,50.34
2016-03-25T10:06:23.908Z,49.96
2016-03-25T10:07:23.958Z,50.34
2016-03-25T10:08:24.023Z,49.96
2016-03-25T10:09:24.073Z,49.96
2016-03-25T10:10:24.122Z,49.86
2016-03-25T10:11:24.171Z,49.96
2016-03-25T10:12:24.221Z,50.24
2016-03-25T10:13:24.271Z,50.05
2016-03-25T10:14:24.321Z,50.15
2016-03-25T10:15:24.370Z,49.96
2016-03-25T10:16:24.434Z,49.96
2016-03-25T10:17:24.485Z,49.96
2016-03-25T10:18:24.534Z,49.96
2016-03-25T10:19:24.584Z,50.34
2016-03-25T10:20:24.634Z,50.15
2016-03-25T10:21:24.684Z,49.96
2016-03-25T10:22:24.733Z,49.96
2016-03-25T10:23:24.781Z,49.96
2016-03-25T10:24:24.879Z,49.86
2016-03-25T10:25:24.881Z,49.76
2016-03-25T10:26:24.931Z,49.86
2016-03-25T10:27:24.980Z,50.15
2016-03-25T10:28:25.045Z,49.96
2016-03-25T10:29:25.079Z,49.86
2016-03-25T10:30:25.144Z,49.86
2016-03-25T10:31:25.194Z,49.96
2016-03-25T10:32:25.244Z,49.67
2016-03-25T10:33:25.293Z,50.15
2016-03-25T10:34:25.343Z,49.96
2016-03-25T10:35:25.393Z,49.76
2016-03-25T10:36:25.441Z,49.67
2016-03-25T10:37:25.507Z,49.96
2016-03-25T10:38:25.541Z,49.67
2016-03-25T10:39:25.621Z,49.48
2016-03-25T10:40:25.640Z,49.67
2016-03-25T10:41:25.705Z,49.38
2016-03-25T10:42:25.754Z,49.86
2016-03-25T10:43:25.804Z,49.57
2016-03-25T10:44:25.838Z,49.67
2016-03-25T10:45:25.919Z,49.29
2016-03-25T10:46:25.953Z,49.29
2016-03-25T10:47:26.003Z,49.29
2016-03-25T10:48:26.053Z,49.48
2016-03-25T10:49:26.101Z,49.29
2016-03-25T10:50:26.151Z,49.1
2016-03-25T10:51:26.201Z,49.29
2016-03-25T10:52:26.250Z,49.48
2016-03-25T10:53:26.316Z,49.29
2016-03-25T10:54:26.350Z,49.48
2016-03-25T10:55:26.399Z,49.57
2016-03-25T10:56:26.464Z,49.29
2016-03-25T10:57:26.514Z,49.29
2016-03-25T10:58:26.563Z,49.29
2016-03-25T10:59:26.613Z,49.38
2016-03-25T11:00:26.663Z,49.38
2016-03-25T11:01:26.712Z,49.76
2016-03-25T11:02:26.777Z,49.38
2016-03-25T11:03:26.827Z,49.57
2016-03-25T11:04:26.861Z,50.15
2016-03-25T11:05:26.926Z,49.67
2016-03-25T11:06:26.976Z,49.29
2016-03-25T11:07:27.025Z,49.38
2016-03-25T11:08:27.074Z,49.96
2016-03-25T11:09:27.109Z,49.96
2016-03-25T11:10:27.174Z,49.29
2016-03-25T11:11:27.239Z,50.05
2016-03-25T11:12:27.273Z,49.57
2016-03-25T11:13:27.323Z,49.86
2016-03-25T11:14:27.387Z,49.76
2016-03-25T11:15:27.437Z,50.05
2016-03-25T11:16:27.487Z,50.05
2016-03-25T11:17:27.536Z,49.67
2016-03-25T11:18:27.586Z,49.86
2016-03-25T11:19:27.651Z,49.38
2016-03-25T11:20:27.685Z,49.48
2016-03-25T11:21:27.734Z,49.38
2016-03-25T11:22:27.800Z,49.48
2016-03-25T11:23:27.850Z,49.38
2016-03-25T11:24:28.118Z,49.29
2016-03-25T11:25:27.949Z,49.19
2016-03-25T11:26:27.983Z,49.57
2016-03-25T11:27:28.048Z,49.57
2016-03-25T11:28:28.098Z,49.38
2016-03-25T11:29:28.148Z,49.38
2016-03-25T11:30:28.181Z,49.76
2016-03-25T11:31:28.262Z,49.67
2016-03-25T11:32:28.297Z,49.57
2016-03-25T11:33:28.345Z,49.38
2016-03-25T11:34:28.395Z,49.48
2016-03-25T11:35:27.695Z,49.48
2016-03-25T11:36:28.494Z,49.19
2016-03-25T11:37:28.560Z,49.38
2016-03-25T11:38:28.609Z,49.38
2016-03-25T11:39:28.769Z,49
2016-03-25T11:40:28.708Z,49.29
2016-03-25T11:41:28.610Z,49.48
2016-03-25T11:42:28.837Z,49.38
2016-03-25T11:43:28.861Z,49.29
2016-03-25T11:44:28.899Z,49.29
2016-03-25T11:45:28.964Z,49.29
2016-03-25T11:46:28.998Z,49.48
2016-03-25T11:47:29.063Z,49.38
2016-03-25T11:48:29.096Z,49.38
2016-03-25T11:49:29.162Z,49.1
2016-03-25T11:50:29.196Z,49.29
2016-03-25T11:51:29.245Z,49.29
2016-03-25T11:52:29.311Z,49.29
2016-03-25T11:53:29.344Z,49.38
2016-03-25T11:54:29.413Z,49.38
2016-03-25T11:55:29.421Z,49.29
2016-03-25T11:56:29.459Z,49.29
2016-03-25T11:57:29.513Z,49.29
2016-03-25T11:58:29.542Z,49.19
2016-03-25T11:59:29.603Z,49.57
2016-03-25T12:00:29.648Z,49.29
2016-03-25T12:01:29.694Z,49.19
2016-03-25T12:02:29.739Z,49.29
2016-03-25T12:03:29.787Z,49.29
2016-03-25T12:04:29.836Z,49.29
2016-03-25T12:05:29.900Z,49.29
2016-03-25T12:06:29.933Z,49.29
2016-03-25T12:07:29.966Z,49.19
2016-03-25T12:08:30.045Z,49.19
2016-03-25T12:09:30.079Z,49.38
2016-03-25T12:10:30.143Z,49.1
2016-03-25T12:11:30.192Z,49.1
2016-03-25T12:12:30.240Z,49.29
2016-03-25T12:13:30.290Z,49.48
2016-03-25T12:14:30.340Z,49.19
2016-03-25T12:15:30.405Z,49.38
2016-03-25T12:16:30.439Z,49.1
2016-03-25T12:17:30.489Z,49.19
2016-03-25T12:18:30.538Z,49.29
2016-03-25T12:19:30.603Z,49.1
2016-03-25T12:20:30.637Z,49
2016-03-25T12:21:30.702Z,49.19
2016-03-25T12:22:30.753Z,49.1
2016-03-25T12:23:30.786Z,49
2016-03-25T12:24:30.852Z,49.29
2016-03-25T12:25:30.900Z,49.1
2016-03-25T12:26:30.935Z,49.1
2016-03-25T12:27:30.999Z,49.1
2016-03-25T12:28:31.049Z,49.19
2016-03-25T12:29:31.099Z,49.29
2016-03-25T12:30:31.163Z,49.48
2016-03-25T12:31:31.214Z,49.1
2016-03-25T12:32:31.248Z,49.29
2016-03-25T12:33:31.296Z,49.38
2016-03-25T12:34:31.347Z,49.1
2016-03-25T12:35:31.412Z,48.9
2016-03-25T12:36:31.462Z,49.1
2016-03-25T12:37:31.495Z,49.19
2016-03-25T12:38:31.560Z,49.1
2016-03-25T12:39:31.610Z,49
2016-03-25T12:40:31.660Z,48.9
2016-03-25T12:41:31.709Z,49.19
2016-03-25T12:42:31.775Z,49.29
2016-03-25T12:43:31.809Z,49.19
2016-03-25T12:44:31.873Z,49
2016-03-25T12:45:31.908Z,49.19
2016-03-25T12:46:31.972Z,49
2016-03-25T12:47:32.023Z,49.1
2016-03-25T12:48:32.072Z,48.9
2016-03-25T12:49:32.122Z,48.9
2016-03-25T12:50:32.171Z,49.1
2016-03-25T12:51:32.220Z,49
2016-03-25T12:52:32.270Z,48.9
2016-03-25T12:53:32.319Z,49.1
2016-03-25T12:54:32.369Z,49.1
2016-03-25T12:55:32.419Z,49
2016-03-25T12:56:32.484Z,48.8